createdAt,value
2022-10-30T00:01:17.202Z,101309.59
2022-10-30T00:03:43.661Z,101308.41
2022-10-30T00:06:10.175Z,101312.06
2022-10-30T00:08:36.660Z,101302.63
2022-10-30T00:11:16.297Z,101299.44
2022-10-30T00:13:44.745Z,101307.41
2022-10-30T00:16:11.344Z,101298.72
2022-10-30T00:18:39.910Z,101304.88
2022-10-30T00:21:12.403Z,101312.44
2022-10-30T00:23:40.988Z,101308.50
2022-10-30T00:26:08.072Z,101306.13
2022-10-30T00:28:34.937Z,101313.72
2022-10-30T00:31:05.468Z,101316.59
2022-10-30T00:33:32.769Z,101317.81
2022-10-30T00:35:59.903Z,101319.00
2022-10-30T00:38:26.673Z,101319.44
2022-10-30T00:40:53.420Z,101317.47
2022-10-30T00:43:33.930Z,101315.13
2022-10-30T00:46:22.899Z,101315.13
2022-10-30T00:48:59.628Z,101312.78
2022-10-30T00:51:28.769Z,101311.56
2022-10-30T00:53:57.547Z,101320.34
2022-10-30T00:56:24.692Z,101311.28
2022-10-30T00:58:58.482Z,101314.03
2022-10-30T01:01:27.527Z,101306.06
2022-10-30T01:03:58.219Z,101308.50
2022-10-30T01:06:25.685Z,101316.09
2022-10-30T01:08:58.811Z,101310.13
2022-10-30T01:11:26.962Z,101311.41
2022-10-30T01:13:57.522Z,101302.59
2022-10-30T01:16:37.563Z,101309.03
2022-10-30T01:19:15.970Z,101300.78
2022-10-30T01:22:03.834Z,101302.75
2022-10-30T01:24:45.409Z,101303.66
2022-10-30T01:27:27.099Z,101305.63
2022-10-30T01:30:06.357Z,101305.28
2022-10-30T01:32:35.493Z,101303.38
2022-10-30T01:35:31.742Z,101307.13
2022-10-30T01:38:13.959Z,101311.66
2022-10-30T01:40:40.412Z,101314.84
2022-10-30T01:43:12.613Z,101307.63
2022-10-30T01:46:09.589Z,101312.03
2022-10-30T01:48:54.028Z,101312.03
2022-10-30T01:51:45.101Z,101314.41
2022-10-30T01:54:27.931Z,101317.19
2022-10-30T01:57:18.856Z,101310.81
2022-10-30T01:59:58.157Z,101306.88
2022-10-30T02:02:24.930Z,101302.47
2022-10-30T02:04:51.710Z,101303.38
2022-10-30T02:07:18.831Z,101309.03
2022-10-30T02:09:45.395Z,101304.63
2022-10-30T02:12:11.807Z,101299.88
2022-10-30T02:14:43.086Z,101307.53
2022-10-30T02:17:13.938Z,101297.25
2022-10-30T02:19:40.352Z,101302.41
2022-10-30T02:22:07.111Z,101294.25
2022-10-30T02:24:33.575Z,101304.53
2022-10-30T02:27:00.064Z,101304.97
2022-10-30T02:29:26.840Z,101301.00
2022-10-30T02:31:53.721Z,101299.44
2022-10-30T02:34:23.180Z,101299.56
2022-10-30T02:36:49.583Z,101292.09
2022-10-30T02:39:16.006Z,101310.47
2022-10-30T02:41:42.389Z,101314.06
2022-10-30T02:44:08.859Z,101319.63
2022-10-30T02:46:35.413Z,101325.25
2022-10-30T02:49:02.752Z,101321.72
2022-10-30T02:51:31.498Z,101319.75
2022-10-30T02:54:01.153Z,101326.50
2022-10-30T02:56:27.787Z,101334.06
2022-10-30T02:58:55.899Z,101330.91
2022-10-30T03:01:22.411Z,101323.34
2022-10-30T03:03:48.925Z,101331.75
2022-10-30T03:06:16.911Z,101326.19
2022-10-30T03:08:44.362Z,101326.59
2022-10-30T03:11:20.964Z,101331.34
2022-10-30T03:13:48.458Z,101333.78
2022-10-30T03:16:23.429Z,101333.44
2022-10-30T03:18:55.549Z,101338.63
2022-10-30T03:21:24.779Z,101326.75
2022-10-30T03:23:51.503Z,101335.13
2022-10-30T03:26:19.001Z,101341.91
2022-10-30T03:28:45.478Z,101338.72
2022-10-30T03:31:14.731Z,101331.59
2022-10-30T03:33:41.505Z,101339.53
2022-10-30T03:36:10.286Z,101333.97
2022-10-30T03:38:37.481Z,101337.13
2022-10-30T03:41:04.539Z,101337.91
2022-10-30T03:43:31.105Z,101336.75
2022-10-30T03:45:57.973Z,101339.22
2022-10-30T03:48:26.398Z,101343.66
2022-10-30T03:50:59.731Z,101346.06
2022-10-30T03:53:28.363Z,101345.66
2022-10-30T03:56:15.547Z,101342.88
2022-10-30T03:58:41.965Z,101345.25
2022-10-30T04:01:09.843Z,101343.72
2022-10-30T04:03:36.420Z,101351.66
2022-10-30T04:06:03.198Z,101341.34
2022-10-30T04:08:32.719Z,101348.53
2022-10-30T04:10:59.254Z,101343.75
2022-10-30T04:13:26.131Z,101344.63
2022-10-30T04:15:56.357Z,101351.81
2022-10-30T04:18:25.393Z,101350.25
2022-10-30T04:20:51.932Z,101337.16
2022-10-30T04:23:20.081Z,101344.69
2022-10-30T04:25:46.530Z,101359.81
2022-10-30T04:28:13.566Z,101353.09
2022-10-30T04:30:40.558Z,101351.13
2022-10-30T04:33:10.333Z,101352.28
2022-10-30T04:35:41.299Z,101357.50
2022-10-30T04:38:10.421Z,101351.13
2022-10-30T04:40:40.372Z,101348.78
2022-10-30T04:43:07.893Z,101351.94
2022-10-30T04:45:34.959Z,101344.81
2022-10-30T04:48:21.688Z,101360.03
2022-10-30T04:50:48.225Z,101359.28
2022-10-30T04:53:27.352Z,101361.66
2022-10-30T04:55:54.734Z,101351.72
2022-10-30T04:58:21.189Z,101357.28
2022-10-30T05:00:47.600Z,101355.28
2022-10-30T05:03:23.012Z,101359.69
2022-10-30T05:05:57.948Z,101347.34
2022-10-30T05:08:24.473Z,101344.19
2022-10-30T05:10:50.917Z,101337.81
2022-10-30T05:13:17.293Z,101338.63
2022-10-30T05:15:43.726Z,101332.31
2022-10-30T05:18:10.580Z,101333.13
2022-10-30T05:20:36.996Z,101335.13
2022-10-30T05:23:03.629Z,101337.09
2022-10-30T05:25:30.409Z,101327.59
2022-10-30T05:28:04.912Z,101326.41
2022-10-30T05:30:33.007Z,101341.50
2022-10-30T05:33:11.721Z,101338.34
2022-10-30T05:35:38.761Z,101328.81
2022-10-30T05:38:07.226Z,101330.81
2022-10-30T05:40:34.739Z,101322.88
2022-10-30T05:43:02.130Z,101317.75
2022-10-30T05:45:37.580Z,101322.13
2022-10-30T05:48:05.254Z,101323.34
2022-10-30T05:50:35.333Z,101320.56
2022-10-30T05:53:04.182Z,101323.75
2022-10-30T05:55:31.087Z,101318.63
2022-10-30T05:58:05.477Z,101313.47
2022-10-30T06:00:35.158Z,101315.03
2022-10-30T06:03:06.605Z,101315.44
2022-10-30T06:05:36.216Z,101318.63
2022-10-30T06:08:04.955Z,101315.47
2022-10-30T06:10:32.026Z,101318.25
2022-10-30T06:13:01.104Z,101322.22
2022-10-30T06:15:29.645Z,101319.47
2022-10-30T06:17:56.708Z,101327.81
2022-10-30T06:20:26.337Z,101323.13
2022-10-30T06:23:06.962Z,101334.22
2022-10-30T06:25:40.732Z,101330.28
2022-10-30T06:28:09.354Z,101331.81
2022-10-30T06:30:35.912Z,101334.59
2022-10-30T06:33:04.680Z,101344.91
2022-10-30T06:35:32.089Z,101345.72
2022-10-30T06:38:00.385Z,101339.75
2022-10-30T06:40:28.243Z,101337.78
2022-10-30T06:42:54.927Z,101348.09
2022-10-30T06:45:23.488Z,101356.41
2022-10-30T06:47:50.435Z,101356.03
2022-10-30T06:50:19.405Z,101347.72
2022-10-30T06:52:46.919Z,101357.63
2022-10-30T06:55:13.695Z,101358.81
2022-10-30T06:57:40.363Z,101356.44
2022-10-30T07:00:08.461Z,101349.69
2022-10-30T07:02:35.264Z,101345.28
2022-10-30T07:05:07.450Z,101348.47
2022-10-30T07:07:34.370Z,101355.59
2022-10-30T07:10:00.899Z,101358.78
2022-10-30T07:12:27.642Z,101361.94
2022-10-30T07:14:54.119Z,101344.06
2022-10-30T07:17:20.597Z,101347.63
2022-10-30T07:19:47.029Z,101355.19
2022-10-30T07:22:13.432Z,101367.06
2022-10-30T07:24:39.882Z,101357.53
2022-10-30T07:27:06.342Z,101358.69
2022-10-30T07:29:32.831Z,101361.84
2022-10-30T07:32:03.348Z,101366.63
2022-10-30T07:34:30.545Z,101363.41
2022-10-30T07:36:57.005Z,101364.56
2022-10-30T07:39:23.589Z,101371.31
2022-10-30T07:41:53.361Z,101372.84
2022-10-30T07:44:19.774Z,101378.38
2022-10-30T07:46:46.158Z,101373.59
2022-10-30T07:49:12.593Z,101369.19
2022-10-30T07:51:39.185Z,101372.34
2022-10-30T07:54:05.742Z,101366.31
2022-10-30T07:56:32.166Z,101361.50
2022-10-30T07:58:58.650Z,101362.63
2022-10-30T08:01:25.324Z,101364.16
2022-10-30T08:03:51.949Z,101351.00
2022-10-30T08:06:21.407Z,101363.66
2022-10-30T08:08:51.202Z,101360.75
2022-10-30T08:11:17.699Z,101355.50
2022-10-30T08:13:44.174Z,101360.97
2022-10-30T08:16:10.724Z,101366.44
2022-10-30T08:18:42.339Z,101364.78
2022-10-30T08:21:09.150Z,101361.50
2022-10-30T08:23:35.825Z,101356.97
2022-10-30T08:26:02.268Z,101363.19
2022-10-30T08:28:31.815Z,101358.22
2022-10-30T08:31:01.113Z,101350.03
2022-10-30T08:33:27.655Z,101351.00
2022-10-30T08:35:56.748Z,101351.97
2022-10-30T08:38:23.905Z,101356.53
2022-10-30T08:40:50.436Z,101340.63
2022-10-30T08:43:16.834Z,101334.38
2022-10-30T08:45:43.342Z,101335.22
2022-10-30T08:48:11.924Z,101319.34
2022-10-30T08:50:38.345Z,101329.38
2022-10-30T08:53:08.285Z,101335.78
2022-10-30T08:55:35.474Z,101336.19
2022-10-30T08:58:02.052Z,101333.00
2022-10-30T09:00:29.042Z,101323.34
2022-10-30T09:02:56.151Z,101324.09
2022-10-30T09:05:22.931Z,101323.25
2022-10-30T09:07:49.367Z,101321.16
2022-10-30T09:10:16.421Z,101329.91
2022-10-30T09:12:42.892Z,101332.56
2022-10-30T09:15:09.589Z,101332.56
2022-10-30T09:17:36.094Z,101326.94
2022-10-30T09:20:02.648Z,101317.53
2022-10-30T09:22:29.191Z,101327.47
2022-10-30T09:24:55.592Z,101334.56
2022-10-30T09:27:22.029Z,101321.50
2022-10-30T09:29:48.546Z,101323.28
2022-10-30T09:32:15.004Z,101329.78
2022-10-30T09:34:41.893Z,101323.25
2022-10-30T09:37:08.399Z,101320.31
2022-10-30T09:39:34.889Z,101310.94
2022-10-30T09:42:07.387Z,101313.34
2022-10-30T09:45:15.320Z,101302.72
2022-10-30T09:47:41.883Z,101301.81
2022-10-30T09:50:11.298Z,101307.69
2022-10-30T09:52:53.734Z,101309.50
2022-10-30T09:55:45.266Z,101302.97
2022-10-30T09:58:24.565Z,101300.22
2022-10-30T10:00:54.087Z,101292.00
2022-10-30T10:03:32.798Z,101285.47
2022-10-30T10:08:34.048Z,101297.41
2022-10-30T10:11:08.361Z,101297.59
2022-10-30T10:13:42.049Z,101309.03
2022-10-30T10:16:22.583Z,101313.28
2022-10-30T10:19:09.286Z,101306.94
2022-10-30T10:21:43.007Z,101306.91
2022-10-30T10:24:34.778Z,101300.44
2022-10-30T10:27:39.735Z,101301.28
2022-10-30T10:30:20.165Z,101298.84
2022-10-30T10:33:04.867Z,101293.00
2022-10-30T10:35:51.275Z,101301.13
2022-10-30T10:38:23.494Z,101299.88
2022-10-30T10:40:52.834Z,101295.34
2022-10-30T10:43:25.251Z,101297.78
2022-10-30T10:46:22.764Z,101288.88
2022-10-30T10:49:27.075Z,101281.94
2022-10-30T10:52:09.929Z,101277.97
2022-10-30T10:54:46.668Z,101281.69
2022-10-30T10:57:32.484Z,101281.22
2022-10-30T11:00:04.214Z,101279.84
2022-10-30T11:02:59.085Z,101273.53
2022-10-30T11:05:48.150Z,101274.38
2022-10-30T11:08:19.840Z,101270.81
2022-10-30T11:10:56.154Z,101261.38
2022-10-30T11:13:25.006Z,101264.00
2022-10-30T11:15:57.928Z,101268.75
2022-10-30T11:18:25.089Z,101261.38
2022-10-30T11:20:51.428Z,101271.94
2022-10-30T11:23:34.586Z,101255.03
2022-10-30T11:26:04.506Z,101265.59
2022-10-30T11:28:48.944Z,101255.50
2022-10-30T11:31:40.582Z,101258.41
2022-10-30T11:34:14.767Z,101260.34
2022-10-30T11:36:41.718Z,101258.88
2022-10-30T11:39:28.853Z,101252.69
2022-10-30T11:41:58.398Z,101255.97
2022-10-30T11:44:32.930Z,101263.09
2022-10-30T11:47:00.532Z,101247.72
2022-10-30T11:50:07.680Z,101244.56
2022-10-30T11:52:42.290Z,101249.78
2022-10-30T11:55:18.253Z,101247.50
2022-10-30T11:57:50.412Z,101237.63
2022-10-30T12:00:23.227Z,101228.03
2022-10-30T12:02:52.618Z,101234.03
2022-10-30T12:05:43.604Z,101229.50
2022-10-30T12:08:15.320Z,101227.81
2022-10-30T12:10:47.701Z,101222.09
2022-10-30T12:13:19.483Z,101223.56
2022-10-30T12:15:49.898Z,101227.03
2022-10-30T12:18:22.571Z,101234.28
2022-10-30T12:20:55.582Z,101235.22
2022-10-30T12:23:25.868Z,101235.06
2022-10-30T12:25:59.435Z,101231.66
2022-10-30T12:28:31.658Z,101234.25
2022-10-30T12:31:21.491Z,101228.09
2022-10-30T12:36:47.247Z,101226.78
2022-10-30T12:39:31.278Z,101222.59
2022-10-30T12:42:05.788Z,101219.97
2022-10-30T12:44:48.626Z,101210.06
2022-10-30T12:47:35.756Z,101216.56
2022-10-30T12:50:14.095Z,101217.53
2022-10-30T12:52:45.687Z,101220.72
2022-10-30T12:55:26.893Z,101225.72
2022-10-30T12:58:26.143Z,101220.75
2022-10-30T13:01:01.007Z,101231.59
2022-10-30T13:03:34.664Z,101223.19
2022-10-30T13:06:08.270Z,101231.16
2022-10-30T13:08:37.740Z,101222.44
2022-10-30T13:11:30.379Z,101222.66
2022-10-30T13:13:59.310Z,101217.34
2022-10-30T13:16:31.374Z,101211.19
2022-10-30T13:19:00.655Z,101220.25
2022-10-30T13:21:36.478Z,101205.34
2022-10-30T13:24:23.688Z,101205.38
2022-10-30T13:26:53.251Z,101209.97
2022-10-30T13:29:27.239Z,101207.84
2022-10-30T13:32:19.977Z,101211.59
2022-10-30T13:35:15.722Z,101193.50
2022-10-30T13:37:44.073Z,101193.88
2022-10-30T13:40:22.570Z,101201.44
2022-10-30T13:43:16.942Z,101200.72
2022-10-30T13:45:52.358Z,101200.22
2022-10-30T13:48:37.518Z,101201.88
2022-10-30T13:51:21.922Z,101192.19
2022-10-30T13:53:58.425Z,101205.34
2022-10-30T13:56:24.975Z,101207.25
2022-10-30T13:59:07.949Z,101214.38
2022-10-30T14:01:46.437Z,101220.25
2022-10-30T14:04:17.247Z,101211.16
2022-10-30T14:06:46.734Z,101219.56
2022-10-30T14:09:43.179Z,101213.09
2022-10-30T14:12:47.387Z,101212.50
2022-10-30T14:15:32.197Z,101212.84
2022-10-30T14:18:14.146Z,101218.66
2022-10-30T14:20:46.310Z,101220.28
2022-10-30T14:23:19.498Z,101222.94
2022-10-30T14:26:13.600Z,101216.72
2022-10-30T14:28:43.849Z,101226.50
2022-10-30T14:31:18.647Z,101217.28
2022-10-30T14:33:45.541Z,101223.66
2022-10-30T14:36:22.521Z,101216.53
2022-10-30T14:39:15.154Z,101216.44
2022-10-30T14:41:49.476Z,101204.88
2022-10-30T14:44:37.643Z,101213.94
2022-10-30T14:47:25.990Z,101209.06
2022-10-30T14:50:04.865Z,101207.22
2022-10-30T14:52:48.530Z,101196.06
2022-10-30T14:55:48.429Z,101200.78
2022-10-30T14:58:21.288Z,101199.50
2022-10-30T15:00:48.429Z,101202.53
2022-10-30T15:03:30.398Z,101205.28
2022-10-30T15:06:02.259Z,101204.09
2022-10-30T15:08:41.009Z,101198.22
2022-10-30T15:11:30.657Z,101204.28
2022-10-30T15:14:01.334Z,101200.91
2022-10-30T15:16:29.405Z,101205.78
2022-10-30T15:19:04.426Z,101200.69
2022-10-30T15:21:33.837Z,101204.09
2022-10-30T15:24:02.343Z,101197.41
2022-10-30T15:26:35.986Z,101200.75
2022-10-30T15:29:03.748Z,101203.66
2022-10-30T15:31:30.248Z,101197.00
2022-10-30T15:33:59.919Z,101201.03
2022-10-30T15:36:30.432Z,101214.59
2022-10-30T15:39:05.801Z,101213.69
2022-10-30T15:41:42.134Z,101214.03
2022-10-30T15:44:08.666Z,101210.78
2022-10-30T15:46:35.185Z,101215.69
2022-10-30T15:49:01.798Z,101216.34
2022-10-30T15:51:28.337Z,101222.00
2022-10-30T15:54:01.094Z,101235.63
2022-10-30T15:56:33.283Z,101229.34
2022-10-30T15:59:08.000Z,101233.56
2022-10-30T16:01:43.498Z,101234.81
2022-10-30T16:04:23.160Z,101236.53
2022-10-30T16:07:17.918Z,101241.47
2022-10-30T16:09:53.772Z,101244.41
2022-10-30T16:12:21.103Z,101250.94
2022-10-30T16:14:47.661Z,101251.38
2022-10-30T16:17:14.137Z,101255.88
2022-10-30T16:19:46.870Z,101263.63
2022-10-30T16:22:19.077Z,101259.63
2022-10-30T16:24:45.818Z,101272.53
2022-10-30T16:27:21.070Z,101266.50
2022-10-30T16:29:50.712Z,101269.22
2022-10-30T16:32:21.235Z,101269.47
2022-10-30T16:34:48.796Z,101273.91
2022-10-30T16:37:24.460Z,101268.09
2022-10-30T16:39:53.466Z,101272.50
2022-10-30T16:42:29.128Z,101281.66
2022-10-30T16:45:27.854Z,101291.03
2022-10-30T16:48:00.166Z,101287.19
2022-10-30T16:50:35.427Z,101285.53
2022-10-30T16:53:18.562Z,101293.72
2022-10-30T16:55:45.318Z,101296.44
2022-10-30T16:58:13.828Z,101297.53
2022-10-30T17:00:42.065Z,101301.88
2022-10-30T17:03:11.535Z,101317.28
2022-10-30T17:05:40.503Z,101320.75
2022-10-30T17:08:27.119Z,101324.31
2022-10-30T17:11:02.339Z,101320.50
2022-10-30T17:13:28.787Z,101329.00
2022-10-30T17:15:55.898Z,101338.00
2022-10-30T17:18:34.149Z,101334.34
2022-10-30T17:21:11.107Z,101344.81
2022-10-30T17:23:44.929Z,101345.88
2022-10-30T17:26:12.830Z,101347.66
2022-10-30T17:28:39.493Z,101350.66
2022-10-30T17:31:31.951Z,101349.59
2022-10-30T17:34:06.246Z,101344.22
2022-10-30T17:36:32.900Z,101358.38
2022-10-30T17:38:59.491Z,101361.09
2022-10-30T17:41:26.117Z,101365.28
2022-10-30T17:43:55.984Z,101366.78
2022-10-30T17:46:24.038Z,101370.28
2022-10-30T17:48:50.988Z,101367.22
2022-10-30T17:51:18.899Z,101381.31
2022-10-30T17:53:48.667Z,101389.13
2022-10-30T17:56:19.595Z,101381.66
2022-10-30T17:58:46.374Z,101384.44
2022-10-30T18:01:22.217Z,101394.09
2022-10-30T18:03:50.114Z,101394.16
2022-10-30T18:06:25.898Z,101411.06
2022-10-30T18:08:53.553Z,101397.34
2022-10-30T18:11:25.054Z,101409.16
2022-10-30T18:13:52.664Z,101400.91
2022-10-30T18:16:19.794Z,101419.75
2022-10-30T18:18:46.465Z,101412.97
2022-10-30T18:21:17.661Z,101419.00
2022-10-30T18:23:52.376Z,101412.63
2022-10-30T18:26:25.242Z,101428.63
2022-10-30T18:28:51.886Z,101423.13
2022-10-30T18:31:23.750Z,101426.34
2022-10-30T18:33:50.898Z,101425.97
2022-10-30T18:36:20.256Z,101424.41
2022-10-30T18:38:47.033Z,101424.84
2022-10-30T18:41:15.248Z,101412.13
2022-10-30T18:43:45.660Z,101424.19
2022-10-30T18:46:14.630Z,101423.47
2022-10-30T18:48:41.113Z,101421.53
2022-10-30T18:51:16.293Z,101428.41
2022-10-30T18:53:50.966Z,101425.34
2022-10-30T18:56:27.526Z,101436.19
2022-10-30T18:58:58.790Z,101433.50
2022-10-30T19:01:31.513Z,101442.16
2022-10-30T19:04:00.886Z,101444.88
2022-10-30T19:06:27.676Z,101445.22
2022-10-30T19:08:54.053Z,101445.03
2022-10-30T19:11:24.637Z,101444.41
2022-10-30T19:13:53.741Z,101444.53
2022-10-30T19:16:21.264Z,101439.78
2022-10-30T19:18:48.444Z,101451.75
2022-10-30T19:21:35.232Z,101458.22
2022-10-30T19:24:02.734Z,101461.00
2022-10-30T19:26:29.120Z,101428.97
2022-10-30T19:28:55.623Z,101454.53
2022-10-30T19:31:22.166Z,101450.97
2022-10-30T19:33:53.032Z,101455.72
2022-10-30T19:36:33.491Z,101458.44
2022-10-30T19:39:05.753Z,101461.31
2022-10-30T19:41:35.333Z,101464.47
2022-10-30T19:44:01.714Z,101474.13
2022-10-30T19:46:28.128Z,101482.16
2022-10-30T19:48:57.708Z,101481.78
2022-10-30T19:51:26.407Z,101482.69
2022-10-30T19:53:53.715Z,101495.97
2022-10-30T19:56:21.035Z,101490.81
2022-10-30T19:58:47.747Z,101492.41
2022-10-30T20:01:14.808Z,101498.06
2022-10-30T20:03:41.400Z,101500.94
2022-10-30T20:06:12.973Z,101494.63
2022-10-30T20:08:39.412Z,101495.34
2022-10-30T20:11:05.901Z,101499.78
2022-10-30T20:13:33.394Z,101494.63
2022-10-30T20:16:00.729Z,101504.44
2022-10-30T20:18:30.592Z,101502.78
2022-10-30T20:20:59.589Z,101500.84
2022-10-30T20:23:26.400Z,101503.94
2022-10-30T20:25:57.503Z,101507.75
2022-10-30T20:28:28.445Z,101514.88
2022-10-30T20:30:55.435Z,101511.28
2022-10-30T20:33:23.158Z,101515.28
2022-10-30T20:35:51.088Z,101525.63
2022-10-30T20:38:20.152Z,101516.44
2022-10-30T20:40:47.951Z,101518.81
2022-10-30T20:43:20.114Z,101522.47
2022-10-30T20:45:47.444Z,101528.13
2022-10-30T20:48:14.116Z,101531.06
2022-10-30T20:50:41.635Z,101533.13
2022-10-30T20:53:12.111Z,101527.84
2022-10-30T20:55:38.838Z,101545.44
2022-10-30T20:58:06.141Z,101530.25
2022-10-30T21:00:32.790Z,101544.56
2022-10-30T21:03:01.852Z,101551.38
2022-10-30T21:05:43.159Z,101553.41
2022-10-30T21:08:11.089Z,101552.22
2022-10-30T21:10:38.395Z,101564.22
2022-10-30T21:13:08.669Z,101572.72
2022-10-30T21:15:41.640Z,101574.44
2022-10-30T21:18:08.867Z,101575.38
2022-10-30T21:20:36.795Z,101578.56
2022-10-30T21:23:03.730Z,101578.59
2022-10-30T21:25:32.215Z,101575.44
2022-10-30T21:27:59.140Z,101583.38
2022-10-30T21:30:25.687Z,101579.84
2022-10-30T21:32:52.172Z,101573.91
2022-10-30T21:35:18.941Z,101575.50
2022-10-30T21:37:45.437Z,101576.34
2022-10-30T21:40:12.580Z,101576.38
2022-10-30T21:42:39.062Z,101578.06
2022-10-30T21:45:06.316Z,101583.69
2022-10-30T21:47:32.725Z,101584.16
2022-10-30T21:49:59.142Z,101575.06
2022-10-30T21:52:25.553Z,101586.19
2022-10-30T21:54:51.965Z,101591.72
2022-10-30T21:57:25.520Z,101590.16
2022-10-30T21:59:51.953Z,101605.38
2022-10-30T22:02:18.463Z,101597.72
2022-10-30T22:04:47.297Z,101609.66
2022-10-30T22:07:13.772Z,101602.88
2022-10-30T22:09:40.158Z,101606.88
2022-10-30T22:12:06.999Z,101609.25
2022-10-30T22:14:33.442Z,101610.81
2022-10-30T22:16:59.899Z,101615.25
2022-10-30T22:19:26.330Z,101611.25
2022-10-30T22:21:52.722Z,101611.63
2022-10-30T22:24:19.158Z,101613.25
2022-10-30T22:26:46.228Z,101613.34
2022-10-30T22:29:12.756Z,101620.97
2022-10-30T22:31:39.150Z,101619.72
2022-10-30T22:34:05.556Z,101624.03
2022-10-30T22:36:33.596Z,101617.28
2022-10-30T22:39:05.650Z,101622.44
2022-10-30T22:41:36.491Z,101624.44
2022-10-30T22:44:08.001Z,101633.97
2022-10-30T22:46:35.710Z,101637.63
2022-10-30T22:49:02.286Z,101632.06
2022-10-30T22:51:32.887Z,101640.38
2022-10-30T22:54:01.779Z,101636.34
2022-10-30T22:56:31.512Z,101639.09
2022-10-30T22:59:00.993Z,101645.47
2022-10-30T23:01:29.651Z,101647.44
2022-10-30T23:03:58.593Z,101646.69
2022-10-30T23:06:25.750Z,101653.47
2022-10-30T23:08:54.549Z,101652.66
2022-10-30T23:11:21.309Z,101649.78
2022-10-30T23:13:48.391Z,101657.31
2022-10-30T23:16:18.874Z,101649.25
2022-10-30T23:18:46.271Z,101650.41
2022-10-30T23:21:16.170Z,101653.59
2022-10-30T23:23:43.532Z,101659.19
2022-10-30T23:26:17.324Z,101660.34
2022-10-30T23:28:44.931Z,101641.19
2022-10-30T23:31:30.562Z,101657.88
2022-10-30T23:33:59.464Z,101660.72
2022-10-30T23:36:26.985Z,101652.78
2022-10-30T23:38:55.038Z,101662.41
2022-10-30T23:41:23.573Z,101655.59
2022-10-30T23:43:53.913Z,101657.56
2022-10-30T23:46:20.527Z,101666.28
2022-10-30T23:48:47.221Z,101662.66
2022-10-30T23:51:13.835Z,101669.09
2022-10-30T23:53:40.250Z,101673.50
2022-10-30T23:56:07.171Z,101675.06
2022-10-30T23:58:33.621Z,101672.69
